Station Historical Data
Daily Summary for May 16, 2017 Units:  Metric    English   Both
« Previous Day
Next Day »
Daily Weekly Monthly Yearly Custom
  High: Low: Average:
Temperature: 31.7 °C 17.8 °C 24.3 °C
Dew Point: 18.3 °C 14.3 °C 15.6 °C
Humidity: 89% 36% 61%
Wind Speed: 1.6km/h 0km/h 0km/h
Wind Gust: 4.8km/h - -
Wind- - SSE
Pressure: 1018.5 hPa 1015.8 hPa -
Precipitation: 0 mm    
Historical Graphs
 
 
Tabular Data for May 16, 2017
Time Temperature Dew Point Pressure Wind Wind Speed Wind Gust Humidity Rainfall Rate (Hourly) solar Conditions
00:00 20.7 °C 15.8 °C 1016.1 hPa Calm     74% 0 mm WeatherDisplay:10.37 W/m2 SCT
00:15 20.6 °C 15.8 °C 1016.1 hPa Calm     74% 0 mm WeatherDisplay:10.37 W/m2 SCT
00:30 20.3 °C 15.9 °C 1016.1 hPa Calm     76% 0 mm WeatherDisplay:10.37 W/m2 SCT
00:45 19.8 °C 15.7 °C 1016.1 hPa Calm     77% 0 mm WeatherDisplay:10.37 W/m2 SCT
01:00 19.5 °C 15.8 °C 1016.5 hPa Calm     79% 0 mm WeatherDisplay:10.37 W/m2 SCT
01:15 19.3 °C 15.7 °C 1016.5 hPa Calm     80% 0 mm WeatherDisplay:10.37 W/m2 SCT
01:30 19.1 °C 15.8 °C 1016.5 hPa Calm     81% 0 mm WeatherDisplay:10.37 W/m2 SCT
01:45 19 °C 15.7 °C 1016.1 hPa Calm     81% 0 mm WeatherDisplay:10.37 W/m2 SCT
02:00 18.3 °C 14.8 °C 1016.1 hPa Calm     80% 0 mm WeatherDisplay:10.37 W/m2 SCT
02:15 18.3 °C 14.8 °C 1016.1 hPa Calm     80% 0 mm WeatherDisplay:10.37 W/m2 SCT
02:30 18.3 °C 14.8 °C 1015.8 hPa Calm     80% 0 mm WeatherDisplay:10.37 W/m2 SCT
02:45 18.3 °C 14.8 °C 1015.8 hPa Calm     80% 0 mm WeatherDisplay:10.37 W/m2 SCT
03:00 18.3 °C 14.8 °C 1015.8 hPa Calm     80% 0 mm WeatherDisplay:10.37 W/m2 SCT
03:15 18.3 °C 14.8 °C 1015.8 hPa Calm     80% 0 mm WeatherDisplay:10.37 W/m2 SCT
03:30 18.3 °C 14.8 °C 1015.8 hPa Calm     80% 0 mm WeatherDisplay:10.37 W/m2 SCT
03:45 18.3 °C 14.8 °C 1015.8 hPa Calm     80% 0 mm WeatherDisplay:10.37 W/m2 SCT
04:00 18.3 °C 14.8 °C 1016.1 hPa Calm     80% 0 mm WeatherDisplay:10.37 W/m2 SCT
04:15 18.3 °C 14.8 °C 1016.1 hPa Calm     80% 0 mm WeatherDisplay:10.37 W/m2 SCT
04:30 18.3 °C 14.8 °C 1016.1 hPa Calm     80% 0 mm WeatherDisplay:10.37 W/m2 SCT
04:45 18.3 °C 14.8 °C 1016.1 hPa Calm     80% 0 mm WeatherDisplay:10.37 W/m2 SCT
05:00 18.3 °C 14.8 °C 1016.1 hPa Calm     80% 0 mm WeatherDisplay:10.37 W/m2 SCT
05:15 18.3 °C 14.8 °C 1016.5 hPa Calm     80% 0 mm WeatherDisplay:10.37 W/m2 SCT
05:30 18.3 °C 14.8 °C 1016.5 hPa Calm     80% 0 mm WeatherDisplay:10.37 W/m2 SCT
05:45 18.3 °C 14.8 °C 1016.8 hPa Calm     80% 0 mm WeatherDisplay:10.37 W/m2 SCT
06:00 18.3 °C 14.8 °C 1017.2 hPa Calm     80% 0 mm WeatherDisplay:10.37 W/m2 SCT
06:15 18.3 °C 14.8 °C 1017.5 hPa Calm     80% 0 mm WeatherDisplay:10.37 W/m2 SCT
06:30 18.3 °C 14.8 °C 1017.5 hPa Calm     80% 0 mm WeatherDisplay:10.37 W/m2 SCT
06:45 18.3 °C 14.8 °C 1017.5 hPa Calm     80% 0 mm WeatherDisplay:10.37 W/m2 SCT
07:00 18.3 °C 14.8 °C 1017.5 hPa Calm     80% 0 mm WeatherDisplay:10.37 W/m2 SCT
07:15 18.3 °C 14.8 °C 1017.8 hPa Calm     80% 0 mm WeatherDisplay:10.37 W/m2 SCT
07:30 18.3 °C 14.8 °C 1017.8 hPa Calm     80% 0 mm WeatherDisplay:10.37 W/m2 SCT
07:45 18.3 °C 14.8 °C 1018.2 hPa Calm     80% 0 mm WeatherDisplay:10.37 W/m2 SCT
08:00 17.8 °C 15.9 °C 1018.2 hPa Calm     89% 0 mm WeatherDisplay:10.37 W/m2 SCT
08:15 18.5 °C 16.5 °C 1018.2 hPa Calm     88% 0 mm WeatherDisplay:10.37 W/m2 SCT
08:30 19.3 °C 16.9 °C 1018.5 hPa Calm     86% 0 mm WeatherDisplay:10.37 W/m2 SCT
08:45 20.3 °C 17.1 °C 1018.5 hPa Calm     82% 0 mm WeatherDisplay:10.37 W/m2 SCT
09:00 21.3 °C 17.3 °C 1018.5 hPa Calm     78% 0 mm WeatherDisplay:10.37 W/m2 SCT
09:15 22.2 °C 17.3 °C 1018.5 hPa Calm     74% 0 mm WeatherDisplay:10.37 W/m2 SCT
09:30 23.2 °C 18.3 °C 1018.5 hPa Calm     74% 0 mm WeatherDisplay:10.37 W/m2 SCT
09:45 24.4 °C 17.8 °C 1018.5 hPa Calm     67% 0 mm WeatherDisplay:10.37 W/m2 SCT
10:00 25.2 °C 17.7 °C 1018.5 hPa Calm   1.6 km/h 63% 0 mm WeatherDisplay:10.37 W/m2 SCT
10:15 26.3 °C 17.6 °C 1018.5 hPa Calm   1.6 km/h 59% 0 mm WeatherDisplay:10.37 W/m2 SCT
10:30 26.6 °C 16.8 °C 1018.5 hPa Calm   3.2 km/h 55% 0 mm WeatherDisplay:10.37 W/m2 SCT
10:45 27.3 °C 17.5 °C 1018.5 hPa Calm   1.6 km/h 55% 0 mm WeatherDisplay:10.37 W/m2 SCT
11:00 27.7 °C 16.9 °C 1018.5 hPa Calm   1.6 km/h 52% 0 mm WeatherDisplay:10.37 W/m2 SCT
11:15 27.9 °C 16.6 °C 1018.5 hPa Calm   1.6 km/h 50% 0 mm WeatherDisplay:10.37 W/m2 SCT
11:30 28 °C 16.3 °C 1018.5 hPa Calm   3.2 km/h 49% 0 mm WeatherDisplay:10.37 W/m2 SCT
11:45 28.5 °C 16.7 °C 1018.5 hPa Calm   1.6 km/h 49% 0 mm WeatherDisplay:10.37 W/m2 SCT
12:00 28.7 °C 16.3 °C 1018.5 hPa Calm   3.2 km/h 47% 0 mm WeatherDisplay:10.37 W/m2 SCT
12:15 29 °C 15.5 °C 1018.5 hPa SSE 1.6 km/h 4.8 km/h 44% 0 mm WeatherDisplay:10.37 W/m2 SCT
12:30 29.7 °C 15.4 °C 1018.5 hPa Calm   3.2 km/h 42% 0 mm WeatherDisplay:10.37 W/m2 SCT
12:45 30.3 °C 15.6 °C 1018.2 hPa West 1.6 km/h 3.2 km/h 41% 0 mm WeatherDisplay:10.37 W/m2 SCT
13:00 31.1 °C 17.3 °C 1018.2 hPa Calm   1.6 km/h 44% 0 mm WeatherDisplay:10.37 W/m2 SCT
13:15 31.3 °C 15.3 °C 1017.8 hPa Calm   3.2 km/h 38% 0 mm WeatherDisplay:10.37 W/m2 SCT
13:30 31.2 °C 14.3 °C 1017.8 hPa NE 1.6 km/h 3.2 km/h 36% 0 mm WeatherDisplay:10.37 W/m2 SCT
13:45 31.6 °C 14.7 °C 1017.8 hPa Calm   3.2 km/h 36% 0 mm WeatherDisplay:10.37 W/m2 SCT
14:00 31.7 °C 16.1 °C 1017.8 hPa Calm   3.2 km/h 39% 0 mm WeatherDisplay:10.37 W/m2 SCT
14:15 31.1 °C 15.5 °C 1017.8 hPa Calm   3.2 km/h 39% 0 mm WeatherDisplay:10.37 W/m2 SCT
14:30 31.2 °C 15.2 °C 1017.5 hPa Calm   4.8 km/h 38% 0 mm WeatherDisplay:10.37 W/m2 SCT
14:45 30.9 °C 15.8 °C 1017.5 hPa Calm   3.2 km/h 40% 0 mm WeatherDisplay:10.37 W/m2 SCT
15:00 30.8 °C 15.2 °C 1017.2 hPa Calm   3.2 km/h 39% 0 mm WeatherDisplay:10.37 W/m2 SCT
15:15 30.9 °C 16.2 °C 1017.2 hPa Calm   3.2 km/h 41% 0 mm WeatherDisplay:10.37 W/m2 SCT
15:30 30.8 °C 16 °C 1016.8 hPa Calm   3.2 km/h 41% 0 mm WeatherDisplay:10.37 W/m2 SCT
15:45 30.3 °C 16.3 °C 1016.8 hPa Calm     43% 0 mm WeatherDisplay:10.37 W/m2 SCT
16:00 30.2 °C 15.5 °C 1016.5 hPa Calm   1.6 km/h 41% 0 mm WeatherDisplay:10.37 W/m2 SCT
16:15 30.3 °C 16.3 °C 1016.5 hPa Calm   1.6 km/h 43% 0 mm WeatherDisplay:10.37 W/m2 SCT
16:30 30.6 °C 14.6 °C 1016.5 hPa Calm   3.2 km/h 38% 0 mm WeatherDisplay:10.37 W/m2 SCT
16:45 30.5 °C 14.6 °C 1016.1 hPa Calm   3.2 km/h 38% 0 mm WeatherDisplay:10.37 W/m2 SCT
17:00 30.8 °C 14.4 °C 1016.1 hPa Calm   1.6 km/h 37% 0 mm WeatherDisplay:10.37 W/m2 SCT
17:15 31.6 °C 15.9 °C 1016.1 hPa Calm   4.8 km/h 39% 0 mm WeatherDisplay:10.37 W/m2 SCT
17:30 31.3 °C 16.1 °C 1016.1 hPa Calm     40% 0 mm WeatherDisplay:10.37 W/m2 SCT
17:45 30.8 °C 15.3 °C 1016.1 hPa Calm   1.6 km/h 39% 0 mm WeatherDisplay:10.37 W/m2 SCT
18:00 30.3 °C 14.8 °C 1016.1 hPa Calm   1.6 km/h 39% 0 mm WeatherDisplay:10.37 W/m2 SCT
18:15 30.6 °C 14.6 °C 1016.1 hPa Calm   1.6 km/h 38% 0 mm WeatherDisplay:10.37 W/m2 SCT
18:30 29.8 °C 15.1 °C 1016.1 hPa Calm   1.6 km/h 41% 0 mm WeatherDisplay:10.37 W/m2 SCT
18:45 29 °C 15.5 °C 1016.1 hPa Calm   1.6 km/h 44% 0 mm WeatherDisplay:10.37 W/m2 SCT
19:00 28.4 °C 15.4 °C 1016.1 hPa Calm   1.6 km/h 45% 0 mm WeatherDisplay:10.37 W/m2 SCT
19:15 28.1 °C 15.4 °C 1016.1 hPa Calm   1.6 km/h 46% 0 mm WeatherDisplay:10.37 W/m2 SCT
19:30 27.8 °C 14.8 °C 1016.1 hPa Calm     45% 0 mm WeatherDisplay:10.37 W/m2 SCT
19:45 27.5 °C 15.5 °C 1016.1 hPa Calm     48% 0 mm WeatherDisplay:10.37 W/m2 SCT
20:00 27 °C 15.3 °C 1016.1 hPa Calm     49% 0 mm WeatherDisplay:10.37 W/m2 SCT
20:15 26.6 °C 15.3 °C 1016.1 hPa Calm     50% 0 mm WeatherDisplay:10.37 W/m2 SCT
20:30 26.1 °C 15.2 °C 1016.5 hPa Calm     51% 0 mm WeatherDisplay:10.37 W/m2 SCT
20:45 25.6 °C 15.6 °C 1016.5 hPa Calm     54% 0 mm WeatherDisplay:10.37 W/m2 SCT
21:00 24.9 °C 15.6 °C 1016.5 hPa Calm     56% 0 mm WeatherDisplay:10.37 W/m2 SCT
21:15 24.4 °C 15.3 °C 1016.5 hPa Calm     57% 0 mm WeatherDisplay:10.37 W/m2 SCT
21:30 23.9 °C 15.2 °C 1016.5 hPa Calm     58% 0 mm WeatherDisplay:10.37 W/m2 SCT
21:45 23.6 °C 15.3 °C 1016.8 hPa Calm     60% 0 mm WeatherDisplay:10.37 W/m2 SCT
22:00 23.3 °C 15.1 °C 1016.8 hPa Calm     60% 0 mm WeatherDisplay:10.37 W/m2 SCT
22:15 23 °C 15.1 °C 1016.8 hPa Calm     61% 0 mm WeatherDisplay:10.37 W/m2 SCT
22:30 22.6 °C 15 °C 1017.2 hPa Calm     62% 0 mm WeatherDisplay:10.37 W/m2 SCT
22:45 22.4 °C 14.8 °C 1017.2 hPa Calm     62% 0 mm WeatherDisplay:10.37 W/m2 SCT
23:00 22.3 °C 15.9 °C 1017.2 hPa Calm     67% 0 mm WeatherDisplay:10.37 W/m2 SCT
23:15 22.2 °C 15.5 °C 1017.2 hPa Calm     66% 0 mm WeatherDisplay:10.37 W/m2 SCT
23:30 22 °C 16.1 °C 1017.2 hPa Calm     69% 0 mm WeatherDisplay:10.37 W/m2 SCT
23:45 21.8 °C 15.9 °C 1017.2 hPa Calm     69% 0 mm WeatherDisplay:10.37 W/m2 SCT
Piedmont Bend
Compliments of Weather Underground - 4 mb